sensor_id;sensor_type;location;lat;lon;timestamp;pressure;altitude;pressure_sealevel;temperature;humidity
67545;BME280;54380;47.770;11.150;2022-09-24T00:01:12;94627.25;;;13.83;55.66
67545;BME280;54380;47.770;11.150;2022-09-24T00:03:43;94627.78;;;13.85;55.66
67545;BME280;54380;47.770;11.150;2022-09-24T00:06:13;94617.97;;;13.86;56.01
67545;BME280;54380;47.770;11.150;2022-09-24T00:08:40;94626.19;;;13.84;56.39
67545;BME280;54380;47.770;11.150;2022-09-24T00:11:07;94611.59;;;13.81;55.95
67545;BME280;54380;47.770;11.150;2022-09-24T00:13:39;94618.78;;;13.81;56.03
67545;BME280;54380;47.770;11.150;2022-09-24T00:16:08;94606.81;;;13.83;56.01
67545;BME280;54380;47.770;11.150;2022-09-24T00:18:35;94607.38;;;13.80;55.68
67545;BME280;54380;47.770;11.150;2022-09-24T00:21:10;94611.34;;;13.83;55.70
67545;BME280;54380;47.770;11.150;2022-09-24T00:23:37;94614.78;;;13.83;55.49
67545;BME280;54380;47.770;11.150;2022-09-24T00:26:04;94610.25;;;13.84;55.21
67545;BME280;54380;47.770;11.150;2022-09-24T00:28:51;94614.50;;;13.85;55.22
67545;BME280;54380;47.770;11.150;2022-09-24T00:31:18;94609.69;;;13.87;55.12
67545;BME280;54380;47.770;11.150;2022-09-24T00:33:44;94601.47;;;13.89;55.09
67545;BME280;54380;47.770;11.150;2022-09-24T00:36:11;94602.78;;;13.91;54.94
67545;BME280;54380;47.770;11.150;2022-09-24T00:38:40;94603.56;;;13.92;55.19
67545;BME280;54380;47.770;11.150;2022-09-24T00:41:07;94602.50;;;13.93;55.81
67545;BME280;54380;47.770;11.150;2022-09-24T00:43:35;94602.78;;;13.91;55.88
67545;BME280;54380;47.770;11.150;2022-09-24T00:46:07;94603.34;;;13.88;55.86
67545;BME280;54380;47.770;11.150;2022-09-24T00:48:40;94600.16;;;13.86;55.53
67545;BME280;54380;47.770;11.150;2022-09-24T00:51:08;94603.59;;;13.87;55.74
67545;BME280;54380;47.770;11.150;2022-09-24T00:53:36;94605.22;;;13.88;55.55
67545;BME280;54380;47.770;11.150;2022-09-24T00:56:03;94596.97;;;13.89;55.60
67545;BME280;54380;47.770;11.150;2022-09-24T00:58:31;94589.22;;;13.93;55.60
67545;BME280;54380;47.770;11.150;2022-09-24T01:01:07;94594.78;;;13.96;55.31
67545;BME280;54380;47.770;11.150;2022-09-24T01:03:37;94579.91;;;13.95;55.67
67545;BME280;54380;47.770;11.150;2022-09-24T01:06:07;94573.81;;;13.95;56.16
67545;BME280;54380;47.770;11.150;2022-09-24T01:08:34;94569.38;;;13.90;56.15
67545;BME280;54380;47.770;11.150;2022-09-24T01:11:09;94570.47;;;13.84;57.12
67545;BME280;54380;47.770;11.150;2022-09-24T01:13:59;94568.16;;;13.77;57.11
67545;BME280;54380;47.770;11.150;2022-09-24T01:16:38;94561.28;;;13.71;56.86
67545;BME280;54380;47.770;11.150;2022-09-24T01:19:34;94569.00;;;13.68;56.28
67545;BME280;54380;47.770;11.150;2022-09-24T01:22:11;94573.28;;;13.64;56.65
67545;BME280;54380;47.770;11.150;2022-09-24T01:24:57;94567.97;;;13.64;56.07
67545;BME280;54380;47.770;11.150;2022-09-24T01:27:35;94562.66;;;13.64;56.07
67545;BME280;54380;47.770;11.150;2022-09-24T01:30:10;94563.47;;;13.64;55.79
67545;BME280;54380;47.770;11.150;2022-09-24T01:32:40;94557.63;;;13.67;56.35
67545;BME280;54380;47.770;11.150;2022-09-24T01:35:08;94548.34;;;13.65;56.71
67545;BME280;54380;47.770;11.150;2022-09-24T01:37:40;94549.72;;;13.57;57.09
67545;BME280;54380;47.770;11.150;2022-09-24T01:40:10;94551.91;;;13.50;57.44
67545;BME280;54380;47.770;11.150;2022-09-24T01:42:38;94551.41;;;13.43;57.48
67545;BME280;54380;47.770;11.150;2022-09-24T01:45:07;94556.75;;;13.37;58.00
67545;BME280;54380;47.770;11.150;2022-09-24T01:47:38;94555.47;;;13.35;57.68
67545;BME280;54380;47.770;11.150;2022-09-24T01:50:06;94554.16;;;13.32;57.65
67545;BME280;54380;47.770;11.150;2022-09-24T01:52:39;94543.03;;;13.30;58.08
67545;BME280;54380;47.770;11.150;2022-09-24T01:55:10;94542.25;;;13.25;58.58
67545;BME280;54380;47.770;11.150;2022-09-24T01:57:41;94531.41;;;13.16;58.71
67545;BME280;54380;47.770;11.150;2022-09-24T02:00:12;94539.69;;;13.09;58.81
67545;BME280;54380;47.770;11.150;2022-09-24T02:02:44;94532.28;;;13.06;59.11
67545;BME280;54380;47.770;11.150;2022-09-24T02:05:16;94530.69;;;13.05;58.81
67545;BME280;54380;47.770;11.150;2022-09-24T02:07:49;94522.16;;;13.08;59.10
67545;BME280;54380;47.770;11.150;2022-09-24T02:10:18;94525.63;;;13.09;59.03
67545;BME280;54380;47.770;11.150;2022-09-24T02:12:48;94520.59;;;13.07;59.15
67545;BME280;54380;47.770;11.150;2022-09-24T02:15:20;94514.00;;;13.05;59.64
67545;BME280;54380;47.770;11.150;2022-09-24T02:17:55;94522.19;;;13.03;59.89
67545;BME280;54380;47.770;11.150;2022-09-24T02:20:25;94506.06;;;13.00;60.10
67545;BME280;54380;47.770;11.150;2022-09-24T02:22:54;94503.19;;;12.96;60.22
67545;BME280;54380;47.770;11.150;2022-09-24T02:25:24;94497.66;;;12.87;60.21
67545;BME280;54380;47.770;11.150;2022-09-24T02:27:53;94503.50;;;12.84;60.57
67545;BME280;54380;47.770;11.150;2022-09-24T02:30:20;94505.91;;;12.81;60.66
67545;BME280;54380;47.770;11.150;2022-09-24T02:32:49;94504.06;;;12.76;60.77
67545;BME280;54380;47.770;11.150;2022-09-24T02:35:19;94507.28;;;12.73;60.75
67545;BME280;54380;47.770;11.150;2022-09-24T02:37:46;94506.75;;;12.71;61.05
67545;BME280;54380;47.770;11.150;2022-09-24T02:40:13;94512.56;;;12.73;60.91
67545;BME280;54380;47.770;11.150;2022-09-24T02:42:41;94514.97;;;12.74;61.13
67545;BME280;54380;47.770;11.150;2022-09-24T02:45:10;94505.16;;;12.75;61.13
67545;BME280;54380;47.770;11.150;2022-09-24T02:47:37;94509.13;;;12.78;60.75
67545;BME280;54380;47.770;11.150;2022-09-24T02:50:06;94512.53;;;12.83;60.10
67545;BME280;54380;47.770;11.150;2022-09-24T02:52:33;94511.44;;;12.89;59.75
67545;BME280;54380;47.770;11.150;2022-09-24T02:55:00;94504.75;;;12.97;59.87
67545;BME280;54380;47.770;11.150;2022-09-24T02:57:27;94502.09;;;13.02;59.82
67545;BME280;54380;47.770;11.150;2022-09-24T02:59:54;94512.91;;;13.06;59.51
67545;BME280;54380;47.770;11.150;2022-09-24T03:02:20;94522.47;;;13.07;59.57
67545;BME280;54380;47.770;11.150;2022-09-24T03:04:47;94512.88;;;13.11;59.61
67545;BME280;54380;47.770;11.150;2022-09-24T03:07:16;94501.75;;;13.14;59.87
67545;BME280;54380;47.770;11.150;2022-09-24T03:09:42;94498.81;;;13.15;60.34
67545;BME280;54380;47.770;11.150;2022-09-24T03:12:09;94498.59;;;13.12;60.55
67545;BME280;54380;47.770;11.150;2022-09-24T03:14:36;94505.22;;;13.09;60.46
67545;BME280;54380;47.770;11.150;2022-09-24T03:17:02;94496.50;;;13.09;59.80
67545;BME280;54380;47.770;11.150;2022-09-24T03:19:29;94495.66;;;13.13;60.08
67545;BME280;54380;47.770;11.150;2022-09-24T03:21:56;94506.50;;;13.17;59.95
67545;BME280;54380;47.770;11.150;2022-09-24T03:24:24;94502.78;;;13.18;59.97
67545;BME280;54380;47.770;11.150;2022-09-24T03:26:51;94503.31;;;13.20;59.60
67545;BME280;54380;47.770;11.150;2022-09-24T03:29:18;94500.66;;;13.20;58.86
67545;BME280;54380;47.770;11.150;2022-09-24T03:32:04;94499.84;;;13.25;59.72
67545;BME280;54380;47.770;11.150;2022-09-24T03:34:31;94501.16;;;13.27;60.11
67545;BME280;54380;47.770;11.150;2022-09-24T03:36:58;94491.34;;;13.28;59.85
67545;BME280;54380;47.770;11.150;2022-09-24T03:39:26;94487.91;;;13.27;60.31
67545;BME280;54380;47.770;11.150;2022-09-24T03:41:53;94488.16;;;13.26;60.08
67545;BME280;54380;47.770;11.150;2022-09-24T03:44:19;94480.19;;;13.26;60.07
67545;BME280;54380;47.770;11.150;2022-09-24T03:46:46;94480.75;;;13.28;59.52
67545;BME280;54380;47.770;11.150;2022-09-24T03:49:13;94484.72;;;13.25;59.11
67545;BME280;54380;47.770;11.150;2022-09-24T03:51:40;94483.66;;;13.26;58.98
67545;BME280;54380;47.770;11.150;2022-09-24T03:54:07;94483.13;;;13.29;58.56
67545;BME280;54380;47.770;11.150;2022-09-24T03:56:35;94473.28;;;13.35;58.51
67545;BME280;54380;47.770;11.150;2022-09-24T03:59:01;94474.03;;;13.41;58.31
67545;BME280;54380;47.770;11.150;2022-09-24T04:01:28;94466.53;;;13.48;58.58
67545;BME280;54380;47.770;11.150;2022-09-24T04:03:58;94459.09;;;13.50;59.31
67545;BME280;54380;47.770;11.150;2022-09-24T04:06:25;94463.09;;;13.47;59.41
67545;BME280;54380;47.770;11.150;2022-09-24T04:08:52;94462.88;;;13.44;59.60
67545;BME280;54380;47.770;11.150;2022-09-24T04:11:20;94463.44;;;13.41;58.98
67545;BME280;54380;47.770;11.150;2022-09-24T04:13:48;94462.38;;;13.36;58.79
67545;BME280;54380;47.770;11.150;2022-09-24T04:16:15;94470.56;;;13.40;58.91
67545;BME280;54380;47.770;11.150;2022-09-24T04:18:42;94462.88;;;13.44;58.79
67545;BME280;54380;47.770;11.150;2022-09-24T04:21:09;94464.69;;;13.48;59.20
67545;BME280;54380;47.770;11.150;2022-09-24T04:23:35;94461.47;;;13.51;58.58
67545;BME280;54380;47.770;11.150;2022-09-24T04:26:02;94459.63;;;13.52;58.15
67545;BME280;54380;47.770;11.150;2022-09-24T04:28:29;94459.06;;;13.55;58.65
67545;BME280;54380;47.770;11.150;2022-09-24T04:30:58;94458.78;;;13.56;58.35
67545;BME280;54380;47.770;11.150;2022-09-24T04:33:25;94461.16;;;13.58;58.11
67545;BME280;54380;47.770;11.150;2022-09-24T04:35:52;94452.63;;;13.61;58.33
67545;BME280;54380;47.770;11.150;2022-09-24T04:38:19;94451.81;;;13.66;58.47
67545;BME280;54380;47.770;11.150;2022-09-24T04:40:47;94448.59;;;13.69;58.15
67545;BME280;54380;47.770;11.150;2022-09-24T04:43:14;94444.09;;;13.69;58.37
67545;BME280;54380;47.770;11.150;2022-09-24T04:45:40;94445.41;;;13.72;57.70
67545;BME280;54380;47.770;11.150;2022-09-24T04:48:11;94448.06;;;13.72;58.06
67545;BME280;54380;47.770;11.150;2022-09-24T04:50:38;94448.84;;;13.72;58.63
67545;BME280;54380;47.770;11.150;2022-09-24T04:53:10;94443.56;;;13.67;59.09
67545;BME280;54380;47.770;11.150;2022-09-24T04:55:37;94436.72;;;13.61;59.14
67545;BME280;54380;47.770;11.150;2022-09-24T04:58:05;94437.81;;;13.60;59.33
67545;BME280;54380;47.770;11.150;2022-09-24T05:00:32;94438.06;;;13.58;60.07
67545;BME280;54380;47.770;11.150;2022-09-24T05:03:00;94440.78;;;13.53;59.86
67545;BME280;54380;47.770;11.150;2022-09-24T05:05:30;94450.91;;;13.46;59.48
67545;BME280;54380;47.770;11.150;2022-09-24T05:07:58;94454.34;;;13.47;59.62
67545;BME280;54380;47.770;11.150;2022-09-24T05:10:25;94446.94;;;13.49;59.41
67545;BME280;54380;47.770;11.150;2022-09-24T05:12:51;94456.97;;;13.52;59.82
67545;BME280;54380;47.770;11.150;2022-09-24T05:15:18;94441.84;;;13.52;59.97
67545;BME280;54380;47.770;11.150;2022-09-24T05:17:45;94434.69;;;13.53;60.28
67545;BME280;54380;47.770;11.150;2022-09-24T05:20:13;94443.19;;;13.50;60.66
67545;BME280;54380;47.770;11.150;2022-09-24T05:22:43;94443.75;;;13.47;60.67
67545;BME280;54380;47.770;11.150;2022-09-24T05:25:11;94438.22;;;13.43;60.84
67545;BME280;54380;47.770;11.150;2022-09-24T05:27:43;94440.06;;;13.43;60.47
67545;BME280;54380;47.770;11.150;2022-09-24T05:30:10;94444.31;;;13.44;60.40
67545;BME280;54380;47.770;11.150;2022-09-24T05:32:37;94440.03;;;13.48;59.89
67545;BME280;54380;47.770;11.150;2022-09-24T05:35:05;94442.41;;;13.49;59.34
67545;BME280;54380;47.770;11.150;2022-09-24T05:37:33;94451.16;;;13.50;59.28
67545;BME280;54380;47.770;11.150;2022-09-24T05:40:04;94453.75;;;13.55;59.09
67545;BME280;54380;47.770;11.150;2022-09-24T05:42:50;94448.13;;;13.61;59.01
67545;BME280;54380;47.770;11.150;2022-09-24T05:45:17;94453.44;;;13.61;58.24
67545;BME280;54380;47.770;11.150;2022-09-24T05:47:44;94450.22;;;13.65;58.81
67545;BME280;54380;47.770;11.150;2022-09-24T05:50:11;94452.31;;;13.68;59.26
67545;BME280;54380;47.770;11.150;2022-09-24T05:52:38;94455.50;;;13.70;59.53
67545;BME280;54380;47.770;11.150;2022-09-24T05:55:08;94456.00;;;13.72;59.67
67545;BME280;54380;47.770;11.150;2022-09-24T05:57:35;94457.63;;;13.68;59.75
67545;BME280;54380;47.770;11.150;2022-09-24T06:00:03;94457.41;;;13.64;60.11
67545;BME280;54380;47.770;11.150;2022-09-24T06:02:37;94456.38;;;13.60;59.91
67545;BME280;54380;47.770;11.150;2022-09-24T06:05:05;94472.00;;;13.61;59.20
67545;BME280;54380;47.770;11.150;2022-09-24T06:07:32;94463.19;;;13.66;58.97
67545;BME280;54380;47.770;11.150;2022-09-24T06:09:59;94468.44;;;13.71;59.04
67545;BME280;54380;47.770;11.150;2022-09-24T06:12:27;94464.69;;;13.77;59.11
67545;BME280;54380;47.770;11.150;2022-09-24T06:14:54;94460.13;;;13.83;59.21
67545;BME280;54380;47.770;11.150;2022-09-24T06:17:21;94470.97;;;13.87;58.38
67545;BME280;54380;47.770;11.150;2022-09-24T06:19:49;94465.38;;;13.88;58.65
67545;BME280;54380;47.770;11.150;2022-09-24T06:22:16;94464.53;;;13.93;58.34
67545;BME280;54380;47.770;11.150;2022-09-24T06:24:42;94464.00;;;13.96;57.85
67545;BME280;54380;47.770;11.150;2022-09-24T06:27:10;94461.28;;;14.01;57.83
67545;BME280;54380;47.770;11.150;2022-09-24T06:29:38;94457.75;;;14.05;58.77
67545;BME280;54380;47.770;11.150;2022-09-24T06:32:04;94459.63;;;14.05;58.33
67545;BME280;54380;47.770;11.150;2022-09-24T06:34:31;94464.72;;;14.01;58.03
67545;BME280;54380;47.770;11.150;2022-09-24T06:36:58;94459.41;;;14.01;58.34
67545;BME280;54380;47.770;11.150;2022-09-24T06:39:24;94472.13;;;14.04;58.24
67545;BME280;54380;47.770;11.150;2022-09-24T06:41:53;94478.47;;;14.09;58.76
67545;BME280;54380;47.770;11.150;2022-09-24T06:44:21;94473.38;;;14.12;58.63
67545;BME280;54380;47.770;11.150;2022-09-24T06:46:50;94466.91;;;14.18;58.67
67545;BME280;54380;47.770;11.150;2022-09-24T06:49:16;94466.91;;;14.18;58.82
67545;BME280;54380;47.770;11.150;2022-09-24T06:51:43;94456.81;;;14.20;59.08
67545;BME280;54380;47.770;11.150;2022-09-24T06:54:10;94460.78;;;14.23;59.34
67545;BME280;54380;47.770;11.150;2022-09-24T06:56:36;94457.84;;;14.24;59.12
67545;BME280;54380;47.770;11.150;2022-09-24T06:59:03;94461.50;;;14.28;58.93
67545;BME280;54380;47.770;11.150;2022-09-24T07:01:30;94453.22;;;14.35;59.29
67545;BME280;54380;47.770;11.150;2022-09-24T07:03:58;94454.44;;;14.43;59.43
67545;BME280;54380;47.770;11.150;2022-09-24T07:06:25;94454.88;;;14.50;59.25
67545;BME280;54380;47.770;11.150;2022-09-24T07:09:12;94456.72;;;14.55;58.56
67545;BME280;54380;47.770;11.150;2022-09-24T07:11:38;94466.25;;;14.56;58.28
67545;BME280;54380;47.770;11.150;2022-09-24T07:14:05;94465.41;;;14.60;58.34
67545;BME280;54380;47.770;11.150;2022-09-24T07:16:32;94468.19;;;14.69;58.45
67545;BME280;54380;47.770;11.150;2022-09-24T07:19:00;94468.38;;;14.78;58.54
67545;BME280;54380;47.770;11.150;2022-09-24T07:21:27;94475.97;;;14.84;58.20
67545;BME280;54380;47.770;11.150;2022-09-24T07:23:54;94471.16;;;14.86;58.43
67545;BME280;54380;47.770;11.150;2022-09-24T07:26:24;94470.59;;;14.89;58.38
67545;BME280;54380;47.770;11.150;2022-09-24T07:28:50;94469.22;;;14.92;58.57
67545;BME280;54380;47.770;11.150;2022-09-24T07:31:17;94472.41;;;14.94;58.93
67545;BME280;54380;47.770;11.150;2022-09-24T07:33:44;94476.63;;;14.95;58.58
67545;BME280;54380;47.770;11.150;2022-09-24T07:36:12;94476.84;;;14.99;58.93
67545;BME280;54380;47.770;11.150;2022-09-24T07:38:39;94483.47;;;15.01;58.67
67545;BME280;54380;47.770;11.150;2022-09-24T07:41:06;94485.31;;;15.01;58.97
67545;BME280;54380;47.770;11.150;2022-09-24T07:43:34;94484.97;;;15.07;58.93
67545;BME280;54380;47.770;11.150;2022-09-24T07:46:01;94486.19;;;15.15;58.97
67545;BME280;54380;47.770;11.150;2022-09-24T07:48:28;94491.63;;;15.24;58.50
67545;BME280;54380;47.770;11.150;2022-09-24T07:50:55;94500.13;;;15.26;57.71
67545;BME280;54380;47.770;11.150;2022-09-24T07:53:23;94504.84;;;15.29;56.39
67545;BME280;54380;47.770;11.150;2022-09-24T07:55:50;94499.25;;;15.30;56.38
67545;BME280;54380;47.770;11.150;2022-09-24T07:58:18;94505.09;;;15.32;56.07
67545;BME280;54380;47.770;11.150;2022-09-24T08:00:45;94504.00;;;15.33;56.06
67545;BME280;54380;47.770;11.150;2022-09-24T08:03:12;94509.81;;;15.35;55.88
67545;BME280;54380;47.770;11.150;2022-09-24T08:05:41;94514.56;;;15.39;55.52
67545;BME280;54380;47.770;11.150;2022-09-24T08:08:10;94518.78;;;15.40;55.95
67545;BME280;54380;47.770;11.150;2022-09-24T08:10:38;94523.84;;;15.41;56.41
67545;BME280;54380;47.770;11.150;2022-09-24T08:13:05;94519.03;;;15.43;56.55
67545;BME280;54380;47.770;11.150;2022-09-24T08:15:32;94527.97;;;15.47;56.66
67545;BME280;54380;47.770;11.150;2022-09-24T08:18:00;94533.81;;;15.49;56.67
67545;BME280;54380;47.770;11.150;2022-09-24T08:20:27;94532.72;;;15.50;56.85
67545;BME280;54380;47.770;11.150;2022-09-24T08:22:53;94539.13;;;15.49;56.45
67545;BME280;54380;47.770;11.150;2022-09-24T08:25:20;94536.47;;;15.49;56.22
67545;BME280;54380;47.770;11.150;2022-09-24T08:27:48;94537.25;;;15.50;56.31
67545;BME280;54380;47.770;11.150;2022-09-24T08:30:15;94538.03;;;15.50;56.40
67545;BME280;54380;47.770;11.150;2022-09-24T08:32:45;94538.28;;;15.54;56.57
67545;BME280;54380;47.770;11.150;2022-09-24T08:35:11;94538.47;;;15.57;56.63
67545;BME280;54380;47.770;11.150;2022-09-24T08:37:38;94537.09;;;15.60;56.33
67545;BME280;54380;47.770;11.150;2022-09-24T08:40:06;94542.69;;;15.58;55.73
67545;BME280;54380;47.770;11.150;2022-09-24T08:42:43;94540.03;;;15.58;55.85
67545;BME280;54380;47.770;11.150;2022-09-24T08:45:16;94537.19;;;15.55;55.89
67545;BME280;54380;47.770;11.150;2022-09-24T08:48:09;94538.75;;;15.56;55.84
67545;BME280;54380;47.770;11.150;2022-09-24T08:50:45;94536.91;;;15.56;56.47
67545;BME280;54380;47.770;11.150;2022-09-24T08:53:18;94539.75;;;15.60;56.44
67545;BME280;54380;47.770;11.150;2022-09-24T08:55:48;94533.84;;;15.63;56.43
67545;BME280;54380;47.770;11.150;2022-09-24T08:58:27;94526.38;;;15.65;56.40
67545;BME280;54380;47.770;11.150;2022-09-24T09:01:04;94542.84;;;15.67;56.23
67545;BME280;54380;47.770;11.150;2022-09-24T09:03:35;94543.09;;;15.71;56.02
67545;BME280;54380;47.770;11.150;2022-09-24T09:06:11;94538.78;;;15.75;56.06
67545;BME280;54380;47.770;11.150;2022-09-24T09:08:46;94541.63;;;15.78;56.10
67545;BME280;54380;47.770;11.150;2022-09-24T09:11:33;94540.53;;;15.79;56.78
67545;BME280;54380;47.770;11.150;2022-09-24T09:14:07;94550.81;;;15.86;57.12
67545;BME280;54380;47.770;11.150;2022-09-24T09:16:43;94548.38;;;15.90;57.08
67545;BME280;54380;47.770;11.150;2022-09-24T09:19:13;94543.03;;;15.90;56.28
67545;BME280;54380;47.770;11.150;2022-09-24T09:21:42;94544.13;;;15.89;56.77
67545;BME280;54380;47.770;11.150;2022-09-24T09:24:15;94544.91;;;15.89;56.33
67545;BME280;54380;47.770;11.150;2022-09-24T09:26:45;94548.94;;;15.87;55.98
67545;BME280;54380;47.770;11.150;2022-09-24T09:29:15;94553.50;;;15.86;56.17
67545;BME280;54380;47.770;11.150;2022-09-24T09:31:52;94553.78;;;15.85;56.11
67545;BME280;54380;47.770;11.150;2022-09-24T09:34:39;94544.22;;;15.84;55.68
67545;BME280;54380;47.770;11.150;2022-09-24T09:37:15;94555.44;;;15.80;55.50
67545;BME280;54380;47.770;11.150;2022-09-24T09:39:56;94548.25;;;15.81;55.50
67545;BME280;54380;47.770;11.150;2022-09-24T09:42:29;94553.50;;;15.86;55.80
67545;BME280;54380;47.770;11.150;2022-09-24T09:44:59;94557.94;;;15.91;56.02
67545;BME280;54380;47.770;11.150;2022-09-24T09:47:41;94553.03;;;15.98;55.12
67545;BME280;54380;47.770;11.150;2022-09-24T09:50:17;94556.78;;;15.97;55.41
67545;BME280;54380;47.770;11.150;2022-09-24T09:52:46;94553.84;;;15.98;54.77
67545;BME280;54380;47.770;11.150;2022-09-24T09:55:21;94563.91;;;16.01;55.21
67545;BME280;54380;47.770;11.150;2022-09-24T09:57:49;94567.84;;;16.04;55.72
67545;BME280;54380;47.770;11.150;2022-09-24T10:00:24;94566.38;;;16.12;55.59
67545;BME280;54380;47.770;11.150;2022-09-24T10:02:53;94556.72;;;16.16;54.70
67545;BME280;54380;47.770;11.150;2022-09-24T10:05:21;94565.47;;;16.16;54.50
67545;BME280;54380;47.770;11.150;2022-09-24T10:07:53;94565.22;;;16.18;55.47
67545;BME280;54380;47.770;11.150;2022-09-24T10:10:22;94565.63;;;16.25;56.28
67545;BME280;54380;47.770;11.150;2022-09-24T10:12:51;94560.69;;;16.32;56.55
67545;BME280;54380;47.770;11.150;2022-09-24T10:15:20;94558.44;;;16.39;56.37
67545;BME280;54380;47.770;11.150;2022-09-24T10:17:49;94548.78;;;16.43;56.01
67545;BME280;54380;47.770;11.150;2022-09-24T10:20:21;94547.88;;;16.48;56.65
67545;BME280;54380;47.770;11.150;2022-09-24T10:22:51;94557.06;;;16.56;56.82
67545;BME280;54380;47.770;11.150;2022-09-24T10:25:21;94552.72;;;16.60;57.09
67545;BME280;54380;47.770;11.150;2022-09-24T10:27:52;94548.69;;;16.62;56.52
67545;BME280;54380;47.770;11.150;2022-09-24T10:30:20;94549.97;;;16.65;55.79
67545;BME280;54380;47.770;11.150;2022-09-24T10:33:01;94549.66;;;16.66;56.05
67545;BME280;54380;47.770;11.150;2022-09-24T10:35:31;94547.50;;;16.68;56.85
67545;BME280;54380;47.770;11.150;2022-09-24T10:38:12;94542.38;;;16.72;56.90
67545;BME280;54380;47.770;11.150;2022-09-24T10:40:40;94544.13;;;16.77;56.87
67545;BME280;54380;47.770;11.150;2022-09-24T10:43:15;94538.13;;;16.85;57.03
67545;BME280;54380;47.770;11.150;2022-09-24T10:45:57;94540.41;;;16.92;56.80
67545;BME280;54380;47.770;11.150;2022-09-24T10:48:36;94536.38;;;16.94;56.02
67545;BME280;54380;47.770;11.150;2022-09-24T10:51:22;94525.69;;;16.94;55.72
67545;BME280;54380;47.770;11.150;2022-09-24T10:54:11;94526.97;;;16.97;56.10
67545;BME280;54380;47.770;11.150;2022-09-24T10:56:47;94527.94;;;17.01;56.09
67545;BME280;54380;47.770;11.150;2022-09-24T10:59:29;94530.81;;;17.04;55.15
67545;BME280;54380;47.770;11.150;2022-09-24T11:02:13;94525.78;;;17.03;55.13
67545;BME280;54380;47.770;11.150;2022-09-24T11:04:50;94528.94;;;17.05;55.26
67545;BME280;54380;47.770;11.150;2022-09-24T11:07:40;94523.31;;;17.06;54.96
67545;BME280;54380;47.770;11.150;2022-09-24T11:10:20;94524.38;;;17.05;54.57
67545;BME280;54380;47.770;11.150;2022-09-24T11:13:01;94514.72;;;17.09;54.75
67545;BME280;54380;47.770;11.150;2022-09-24T11:15:51;94516.00;;;17.12;54.52
67545;BME280;54380;47.770;11.150;2022-09-24T11:18:33;94527.84;;;17.20;55.51
67545;BME280;54380;47.770;11.150;2022-09-24T11:21:13;94532.94;;;17.30;55.55
67545;BME280;54380;47.770;11.150;2022-09-24T11:24:13;94530.53;;;17.42;55.87
67545;BME280;54380;47.770;11.150;2022-09-24T11:26:50;94528.06;;;17.46;55.27
67545;BME280;54380;47.770;11.150;2022-09-24T11:32:31;94527.75;;;17.47;54.22
67545;BME280;54380;47.770;11.150;2022-09-24T11:35:20;94525.50;;;17.63;55.12
67545;BME280;54380;47.770;11.150;2022-09-24T11:37:57;94526.75;;;17.80;54.63
67545;BME280;54380;47.770;11.150;2022-09-24T11:40:40;94518.50;;;17.90;53.99
67545;BME280;54380;47.770;11.150;2022-09-24T11:43:26;94516.31;;;17.92;52.91
67545;BME280;54380;47.770;11.150;2022-09-24T11:46:10;94516.59;;;17.90;52.28
67545;BME280;54380;47.770;11.150;2022-09-24T11:49:03;94517.22;;;17.87;51.72
67545;BME280;54380;47.770;11.150;2022-09-24T11:51:43;94515.00;;;17.81;51.85
67545;BME280;54380;47.770;11.150;2022-09-24T11:54:22;94512.81;;;17.83;51.88
67545;BME280;54380;47.770;11.150;2022-09-24T11:56:57;94512.81;;;17.83;51.95
67545;BME280;54380;47.770;11.150;2022-09-24T11:59:34;94516.25;;;17.83;52.06
67545;BME280;54380;47.770;11.150;2022-09-24T12:02:09;94514.09;;;17.85;52.33
67545;BME280;54380;47.770;11.150;2022-09-24T12:04:45;94507.19;;;17.93;51.68
67545;BME280;54380;47.770;11.150;2022-09-24T12:07:16;94504.84;;;17.91;51.38
67545;BME280;54380;47.770;11.150;2022-09-24T12:09:51;94500.91;;;17.89;51.45
67545;BME280;54380;47.770;11.150;2022-09-24T12:12:25;94502.97;;;17.92;51.51
67545;BME280;54380;47.770;11.150;2022-09-24T12:14:57;94501.59;;;18.03;51.60
67545;BME280;54380;47.770;11.150;2022-09-24T12:17:32;94497.09;;;18.12;52.42
67545;BME280;54380;47.770;11.150;2022-09-24T12:20:03;94497.91;;;18.21;52.34
67545;BME280;54380;47.770;11.150;2022-09-24T12:22:36;94498.44;;;18.32;51.82
67545;BME280;54380;47.770;11.150;2022-09-24T12:25:09;94493.72;;;18.29;51.93
67545;BME280;54380;47.770;11.150;2022-09-24T12:27:38;94493.72;;;18.29;51.13
67545;BME280;54380;47.770;11.150;2022-09-24T12:30:19;94497.00;;;18.26;51.48
67545;BME280;54380;47.770;11.150;2022-09-24T12:33:08;94500.28;;;18.23;51.11
67545;BME280;54380;47.770;11.150;2022-09-24T12:35:48;94495.09;;;18.18;51.28
67545;BME280;54380;47.770;11.150;2022-09-24T12:38:18;94493.81;;;18.15;51.12
67545;BME280;54380;47.770;11.150;2022-09-24T12:41:05;94493.03;;;18.15;51.29
67545;BME280;54380;47.770;11.150;2022-09-24T12:43:42;94492.84;;;18.11;51.19
67545;BME280;54380;47.770;11.150;2022-09-24T12:46:15;94482.00;;;18.08;51.43
67545;BME280;54380;47.770;11.150;2022-09-24T12:48:45;94486.84;;;18.06;51.55
67545;BME280;54380;47.770;11.150;2022-09-24T12:51:14;94486.69;;;18.02;51.56
67545;BME280;54380;47.770;11.150;2022-09-24T12:53:42;94481.34;;;18.02;51.92
67545;BME280;54380;47.770;11.150;2022-09-24T12:56:23;94482.44;;;18.01;52.05
67545;BME280;54380;47.770;11.150;2022-09-24T12:58:53;94483.84;;;17.98;52.16
67545;BME280;54380;47.770;11.150;2022-09-24T13:01:29;94480.38;;;17.98;52.01
67545;BME280;54380;47.770;11.150;2022-09-24T13:04:05;94483.97;;;17.93;51.86
67545;BME280;54380;47.770;11.150;2022-09-24T13:06:51;94476.56;;;17.90;52.88
67545;BME280;54380;47.770;11.150;2022-09-24T13:09:33;94477.69;;;17.98;53.74
67545;BME280;54380;47.770;11.150;2022-09-24T13:12:03;94480.56;;;18.02;53.56
67545;BME280;54380;47.770;11.150;2022-09-24T13:14:33;94475.09;;;18.07;53.50